This is the latest recevied weather packets stored in our database for station/object E22ZMG-4. If no packets are shown the sender has not sent any weather packets the latest 10 day(s).
| Time | Temp. | Humidity | Pressure | Rain* | Wind** | Luminosity | Snow |
|---|---|---|---|---|---|---|---|
| 1777869582 | 25.56° C | 37% | 977 hPa | - | - | 0 W/m² | - |
| 1777868957 | 25.56° C | 37% | 977 hPa | - | - | 0 W/m² | - |
| 1777868333 | 25.56° C | 37% | 977 hPa | - | - | 0 W/m² | - |
| 1777867708 | 25.56° C | 37% | 977 hPa | - | - | 0 W/m² | - |
| 1777867084 | 26.11° C | 37% | 977 hPa | - | - | 0 W/m² | - |
| 1777866459 | 26.11° C | 38% | 977 hPa | - | - | 0 W/m² | - |
| 1777865835 | 26.11° C | 39% | 977 hPa | - | - | 0 W/m² | - |
| 1777865210 | 26.11° C | 38% | 977 hPa | - | - | 0 W/m² | - |
| 1777864585 | 26.11° C | 37% | 977 hPa | - | - | 0 W/m² | - |
| 1777863961 | 26.67° C | 37% | 978 hPa | - | - | 0 W/m² | - |
| 1777863336 | 26.67° C | 37% | 978 hPa | - | - | 0 W/m² | - |
| 1777862712 | 27.22° C | 38% | 978 hPa | - | - | 0 W/m² | - |
| 1777862087 | 27.22° C | 39% | 978 hPa | - | - | 0 W/m² | - |
| 1777861462 | 27.78° C | 38% | 978 hPa | - | - | 0 W/m² | - |
| 1777860838 | 28.33° C | 41% | 978 hPa | - | - | 0 W/m² | - |
| 1777860213 | 28.89° C | 45% | 978 hPa | - | - | 0 W/m² | - |
| 1777859589 | 28.89° C | 46% | 978 hPa | - | - | 0 W/m² | - |
| 1777858965 | 28.89° C | 48% | 978 hPa | - | - | 0 W/m² | - |
| 1777858340 | 28.33° C | 40% | 978 hPa | - | - | 0 W/m² | - |
| 1777857715 | 28.33° C | 40% | 978 hPa | - | - | 0 W/m² | - |
| 1777857091 | 28.89° C | 40% | 977 hPa | - | - | 0 W/m² | - |
| 1777856461 | 30° C | 43% | 977 hPa | - | - | 0 W/m² | - |
| 1777855837 | 31.67° C | 46% | 977 hPa | - | - | 0 W/m² | - |
| 1777855213 | 31.11° C | 47% | 977 hPa | - | - | 0 W/m² | - |
| 1777854588 | 31.11° C | 47% | 977 hPa | - | - | 0 W/m² | - |
* Rain since midnight (hover to see other rain measurements)
** Current wind speed in m/s (hover to see current wind gust speed)